createdAt,value
2023-05-25T00:02:31.441Z,34.58
2023-05-25T00:05:04.474Z,34.40
2023-05-25T00:07:51.313Z,34.70
2023-05-25T00:10:24.973Z,36.20
2023-05-25T00:13:11.385Z,35.15
2023-05-25T00:15:44.607Z,33.20
2023-05-25T00:18:31.330Z,32.80
2023-05-25T00:21:06.792Z,33.92
2023-05-25T00:23:53.345Z,38.63
2023-05-25T00:26:26.422Z,38.65
2023-05-25T00:29:13.353Z,35.63
2023-05-25T00:31:46.439Z,40.50
2023-05-25T00:34:33.349Z,35.85
2023-05-25T00:37:06.452Z,38.83
2023-05-25T00:39:53.343Z,37.75
2023-05-25T00:42:28.175Z,37.63
2023-05-25T00:45:22.359Z,38.17
2023-05-25T00:48:18.379Z,37.67
2023-05-25T00:51:12.358Z,41.20
2023-05-25T00:53:59.356Z,43.42
2023-05-25T00:56:39.524Z,39.75
2023-05-25T00:59:42.346Z,43.72
2023-05-25T01:02:20.903Z,38.65
2023-05-25T01:05:09.360Z,41.70
2023-05-25T01:07:43.488Z,37.50
2023-05-25T01:10:32.393Z,38.42
2023-05-25T01:13:08.452Z,38.80
2023-05-25T01:15:56.399Z,43.67
2023-05-25T01:18:29.475Z,40.33
2023-05-25T01:21:26.383Z,38.95
2023-05-25T01:24:05.511Z,39.92
2023-05-25T01:27:02.374Z,44.50
2023-05-25T01:29:39.474Z,38.88
2023-05-25T01:32:27.422Z,42.55
2023-05-25T01:35:02.502Z,41.13
2023-05-25T01:37:56.438Z,43.80
2023-05-25T01:40:36.423Z,37.60
2023-05-25T01:43:30.395Z,34.85
2023-05-25T01:46:42.515Z,38.33
2023-05-25T01:49:38.390Z,44.38
2023-05-25T01:52:24.504Z,40.38
2023-05-25T01:55:25.382Z,43.55
2023-05-25T01:58:09.444Z,36.58
2023-05-25T02:01:04.409Z,38.78
2023-05-25T02:04:00.420Z,41.78
2023-05-25T02:06:47.395Z,42.13
2023-05-25T02:09:27.388Z,37.95
2023-05-25T02:12:21.406Z,41.85
2023-05-25T02:15:08.403Z,42.08
2023-05-25T02:17:41.567Z,38.17
2023-05-25T02:20:28.559Z,40.35
2023-05-25T02:23:08.434Z,35.65
2023-05-25T02:26:02.421Z,39.35
2023-05-25T02:28:49.396Z,41.88
2023-05-25T02:31:22.627Z,38.53
2023-05-25T02:34:09.422Z,38.05
2023-05-25T02:36:43.439Z,34.95
2023-05-25T02:39:32.464Z,34.85
2023-05-25T02:42:05.986Z,36.78
2023-05-25T02:44:54.432Z,35.45
2023-05-25T02:47:27.562Z,36.85
2023-05-25T02:50:14.406Z,36.78
2023-05-25T02:52:47.519Z,41.60
2023-05-25T02:55:34.432Z,32.75
2023-05-25T02:58:07.995Z,35.78
2023-05-25T03:00:54.467Z,37.15
2023-05-25T03:03:27.522Z,35.67
2023-05-25T03:06:14.447Z,37.58
2023-05-25T03:08:47.523Z,34.50
2023-05-25T03:11:35.456Z,33.10
2023-05-25T03:14:15.414Z,34.53
2023-05-25T03:17:09.437Z,35.75
2023-05-25T03:20:03.466Z,31.25
2023-05-25T03:22:57.426Z,34.92
2023-05-25T03:25:44.675Z,34.25
2023-05-25T03:28:18.524Z,34.58
2023-05-25T03:31:05.436Z,34.35
2023-05-25T03:33:48.441Z,39.17
2023-05-25T03:36:37.668Z,30.90
2023-05-25T03:39:12.570Z,33.78
2023-05-25T03:41:59.438Z,33.80
2023-05-25T03:44:32.550Z,35.95
2023-05-25T03:47:20.442Z,36.60
2023-05-25T03:49:53.561Z,32.25
2023-05-25T03:52:40.446Z,35.25
2023-05-25T03:55:15.275Z,33.58
2023-05-25T03:58:02.438Z,35.33
2023-05-25T04:00:42.451Z,33.63
2023-05-25T04:03:36.753Z,34.83
2023-05-25T04:06:25.535Z,33.35
2023-05-25T04:08:59.533Z,29.58
2023-05-25T04:11:46.434Z,29.83
2023-05-25T04:14:21.262Z,32.65
2023-05-25T04:17:08.452Z,29.60
2023-05-25T04:19:41.708Z,32.88
2023-05-25T04:22:28.469Z,31.58
2023-05-25T04:25:01.564Z,29.65
2023-05-25T04:27:48.440Z,32.22
2023-05-25T04:30:29.480Z,33.45
2023-05-25T04:33:24.516Z,29.95
2023-05-25T04:36:20.458Z,30.42
2023-05-25T04:39:10.455Z,31.60
2023-05-25T04:41:43.592Z,31.17
2023-05-25T04:44:37.459Z,30.85
2023-05-25T04:47:25.503Z,27.23
2023-05-25T04:49:59.574Z,27.20
2023-05-25T04:52:46.461Z,30.75
2023-05-25T04:55:26.515Z,28.33
2023-05-25T04:58:20.469Z,29.38
2023-05-25T05:01:07.563Z,30.85
2023-05-25T05:03:40.605Z,28.80
2023-05-25T05:06:28.459Z,26.42
2023-05-25T05:09:01.592Z,29.10
2023-05-25T05:11:48.484Z,28.70
2023-05-25T05:14:21.584Z,29.33
2023-05-25T05:17:08.476Z,29.35
2023-05-25T05:19:48.496Z,27.33
2023-05-25T05:22:42.503Z,32.05
2023-05-25T05:25:36.470Z,28.50
2023-05-25T05:28:33.487Z,30.50
2023-05-25T05:31:27.514Z,32.00
2023-05-25T05:34:21.501Z,30.42
2023-05-25T05:37:15.501Z,31.00
2023-05-25T05:40:09.508Z,29.42
2023-05-25T05:42:56.500Z,30.20
2023-05-25T05:45:29.590Z,29.70
2023-05-25T05:48:16.492Z,32.63
2023-05-25T05:50:49.737Z,31.75
2023-05-25T05:53:36.526Z,31.42
2023-05-25T05:56:11.327Z,33.78
2023-05-25T05:59:00.488Z,34.25
2023-05-25T06:01:33.601Z,30.17
2023-05-25T06:04:21.501Z,32.40
2023-05-25T06:06:55.848Z,30.63
2023-05-25T06:09:42.513Z,30.90
2023-05-25T06:12:31.582Z,29.97
2023-05-25T06:15:18.516Z,29.95
2023-05-25T06:17:51.635Z,27.70
2023-05-25T06:20:38.613Z,25.73
2023-05-25T06:23:20.530Z,32.40
2023-05-25T06:26:20.511Z,30.92
2023-05-25T06:29:07.506Z,32.00
2023-05-25T06:31:47.570Z,28.73
2023-05-25T06:34:35.940Z,28.23
2023-05-25T06:37:10.894Z,31.25
2023-05-25T06:39:57.775Z,29.08
2023-05-25T06:42:30.616Z,31.42
2023-05-25T06:45:17.577Z,28.77
2023-05-25T06:47:50.676Z,30.50
2023-05-25T06:50:37.516Z,30.42
2023-05-25T06:53:17.525Z,28.58
2023-05-25T06:56:11.547Z,28.30
2023-05-25T06:59:05.550Z,30.98
2023-05-25T07:02:02.540Z,27.63
2023-05-25T07:04:49.582Z,30.45
2023-05-25T07:07:29.552Z,36.20
2023-05-25T07:10:16.583Z,27.83
2023-05-25T07:12:56.541Z,31.85
2023-05-25T07:15:43.848Z,30.77
2023-05-25T07:18:24.575Z,30.17
2023-05-25T07:21:18.537Z,28.42
2023-05-25T07:24:05.557Z,30.10
2023-05-25T07:26:47.572Z,25.67
2023-05-25T07:29:44.540Z,27.92
2023-05-25T07:32:31.565Z,31.17
2023-05-25T07:35:04.650Z,29.98
2023-05-25T07:37:51.563Z,31.40
2023-05-25T07:40:31.575Z,28.48
2023-05-25T07:43:25.556Z,26.02
2023-05-25T07:46:19.592Z,30.33
2023-05-25T07:49:06.557Z,29.33
2023-05-25T07:51:46.581Z,33.08
2023-05-25T07:54:40.640Z,33.70
2023-05-25T07:57:34.567Z,32.17
2023-05-25T08:00:28.645Z,28.73
2023-05-25T08:03:15.638Z,34.17
2023-05-25T08:05:55.571Z,31.85
2023-05-25T08:08:51.569Z,31.40
2023-05-25T08:11:38.585Z,29.40
2023-05-25T08:14:18.580Z,29.58
2023-05-25T08:17:05.587Z,31.42
2023-05-25T08:19:38.686Z,30.52
2023-05-25T08:22:25.566Z,27.75
2023-05-25T08:24:58.676Z,31.63
2023-05-25T08:27:45.565Z,34.58
2023-05-25T08:30:18.738Z,37.20
2023-05-25T08:33:05.586Z,35.40
2023-05-25T08:35:43.273Z,31.55
2023-05-25T08:38:32.573Z,28.45
2023-05-25T08:41:17.590Z,30.60
2023-05-25T08:44:14.793Z,36.53
2023-05-25T08:47:03.585Z,30.45
2023-05-25T08:49:39.928Z,29.30
2023-05-25T08:52:33.634Z,27.98
2023-05-25T08:55:11.709Z,34.65
2023-05-25T08:58:03.617Z,29.58
2023-05-25T09:00:57.582Z,29.20
2023-05-25T09:03:52.649Z,29.67
2023-05-25T09:06:45.301Z,28.08
2023-05-25T09:09:20.738Z,26.67
2023-05-25T09:12:08.599Z,29.27
2023-05-25T09:14:52.596Z,27.92
2023-05-25T09:17:46.654Z,25.67
2023-05-25T09:20:41.437Z,29.60
2023-05-25T09:23:29.625Z,34.08
2023-05-25T09:26:04.747Z,26.23
2023-05-25T09:28:55.671Z,27.10
2023-05-25T09:31:30.857Z,30.10
2023-05-25T09:34:19.601Z,30.73
2023-05-25T09:36:52.856Z,25.38
2023-05-25T09:39:39.702Z,29.48
2023-05-25T09:42:12.762Z,31.08
2023-05-25T09:44:59.625Z,28.73
2023-05-25T09:47:37.426Z,29.45
2023-05-25T09:50:25.616Z,26.85
2023-05-25T09:53:04.117Z,26.80
2023-05-25T09:55:54.275Z,26.05
2023-05-25T09:58:36.618Z,29.05
2023-05-25T10:01:23.663Z,27.85
2023-05-25T10:04:04.347Z,25.95
2023-05-25T10:06:56.618Z,26.92
2023-05-25T10:09:36.843Z,29.75
2023-05-25T10:12:27.641Z,31.15
2023-05-25T10:15:01.746Z,25.77
2023-05-25T10:18:01.712Z,26.17
2023-05-25T10:20:43.723Z,26.95
2023-05-25T10:23:31.660Z,27.30
2023-05-25T10:26:13.680Z,36.13
2023-05-25T10:29:13.660Z,25.25
2023-05-25T10:32:00.686Z,25.75
2023-05-25T10:34:36.076Z,25.77
2023-05-25T10:37:22.649Z,26.25
2023-05-25T10:39:56.760Z,26.02
2023-05-25T10:42:45.668Z,27.23
2023-05-25T10:45:22.654Z,25.52
2023-05-25T10:48:09.758Z,26.52
2023-05-25T10:50:43.824Z,28.40
2023-05-25T10:53:30.685Z,29.98
2023-05-25T10:56:07.384Z,27.95
2023-05-25T10:58:54.666Z,26.27
2023-05-25T11:01:28.932Z,24.63
2023-05-25T11:04:18.724Z,25.83
2023-05-25T11:06:54.780Z,28.85
2023-05-25T11:09:47.680Z,27.83
2023-05-25T11:12:28.852Z,23.83
2023-05-25T11:15:21.691Z,27.13
2023-05-25T11:18:06.052Z,28.10
2023-05-25T11:20:52.757Z,32.08
2023-05-25T11:23:29.968Z,24.55
2023-05-25T11:26:30.695Z,26.35
2023-05-25T11:29:04.784Z,27.02
2023-05-25T11:31:57.724Z,26.98
2023-05-25T11:34:41.688Z,29.40
2023-05-25T11:37:37.686Z,26.20
2023-05-25T11:40:24.757Z,27.70
2023-05-25T11:43:06.695Z,26.70
2023-05-25T11:46:09.746Z,28.95
2023-05-25T11:48:58.702Z,31.20
2023-05-25T11:51:40.755Z,26.48
2023-05-25T11:54:41.727Z,28.83
2023-05-25T11:57:37.696Z,23.00
2023-05-25T12:00:32.758Z,23.05
2023-05-25T12:03:12.805Z,25.58
2023-05-25T12:06:06.763Z,28.05
2023-05-25T12:08:53.721Z,24.23
2023-05-25T12:11:45.356Z,23.80
2023-05-25T12:14:31.704Z,26.50
2023-05-25T12:17:04.925Z,27.83
2023-05-25T12:19:51.752Z,24.42
2023-05-25T12:22:31.723Z,23.40
2023-05-25T12:25:35.739Z,24.92
2023-05-25T12:28:32.762Z,27.52
2023-05-25T12:31:06.216Z,29.13
2023-05-25T12:34:10.749Z,28.55
2023-05-25T12:36:58.836Z,28.80
2023-05-25T12:39:45.736Z,28.23
2023-05-25T12:42:26.582Z,29.23
2023-05-25T12:45:20.751Z,27.17
2023-05-25T12:48:07.776Z,27.58
2023-05-25T12:50:48.795Z,29.52
2023-05-25T12:53:42.763Z,23.52
2023-05-25T12:56:29.759Z,25.05
2023-05-25T12:59:09.732Z,26.95
2023-05-25T13:02:03.778Z,25.90
2023-05-25T13:04:50.798Z,28.33
2023-05-25T13:07:23.928Z,35.28
2023-05-25T13:10:10.817Z,27.50
2023-05-25T13:12:44.848Z,26.10
2023-05-25T13:15:32.756Z,26.17
2023-05-25T13:18:12.883Z,26.05
2023-05-25T13:21:06.933Z,26.45
2023-05-25T13:23:53.767Z,28.63
2023-05-25T13:26:33.749Z,26.15
2023-05-25T13:29:20.769Z,26.98
2023-05-25T13:31:53.905Z,24.88
2023-05-25T13:34:41.779Z,25.08
2023-05-25T13:37:15.442Z,27.58
2023-05-25T13:40:02.760Z,28.92
2023-05-25T13:42:36.284Z,26.98
2023-05-25T13:45:29.757Z,28.33
2023-05-25T13:48:23.862Z,26.63
2023-05-25T13:51:17.776Z,25.42
2023-05-25T13:54:04.773Z,27.27
2023-05-25T13:56:37.922Z,30.13
2023-05-25T13:59:24.775Z,27.05
2023-05-25T14:01:57.941Z,32.63
2023-05-25T14:04:44.783Z,27.13
2023-05-25T14:07:17.929Z,30.73
2023-05-25T14:10:05.954Z,34.83
2023-05-25T14:12:39.921Z,30.08
2023-05-25T14:15:28.707Z,25.60
2023-05-25T14:18:01.945Z,27.98
2023-05-25T14:20:48.893Z,26.75
2023-05-25T14:23:21.970Z,26.38
2023-05-25T14:26:11.830Z,30.23
2023-05-25T14:28:44.925Z,31.15
2023-05-25T14:31:31.887Z,29.50
2023-05-25T14:34:04.903Z,29.95
2023-05-25T14:36:51.851Z,25.95
2023-05-25T14:39:25.010Z,29.00
2023-05-25T14:42:12.855Z,29.55
2023-05-25T14:44:52.791Z,25.40
2023-05-25T14:47:46.887Z,25.90
2023-05-25T14:50:42.632Z,28.67
2023-05-25T14:53:29.823Z,27.30
2023-05-25T14:56:11.381Z,25.88
2023-05-25T14:59:04.856Z,27.40
2023-05-25T15:01:52.937Z,26.50
2023-05-25T15:04:27.196Z,30.52
2023-05-25T15:07:16.557Z,27.05
2023-05-25T15:09:49.943Z,30.38
2023-05-25T15:12:39.821Z,30.40
2023-05-25T15:15:14.753Z,31.25
2023-05-25T15:18:01.852Z,34.60
2023-05-25T15:20:35.092Z,29.48
2023-05-25T15:23:24.855Z,38.85
2023-05-25T15:26:04.919Z,30.45
2023-05-25T15:28:51.902Z,32.67
2023-05-25T15:31:25.317Z,30.10
2023-05-25T15:34:11.881Z,34.97
2023-05-25T15:36:44.980Z,53.45
2023-05-25T15:39:31.928Z,37.47
2023-05-25T15:42:11.884Z,39.72
2023-05-25T15:44:58.861Z,37.22
2023-05-25T15:47:52.965Z,37.88
2023-05-25T15:50:46.863Z,36.25
2023-05-25T15:53:40.896Z,40.33
2023-05-25T15:56:28.909Z,37.03
2023-05-25T15:59:02.337Z,36.45
2023-05-25T16:01:48.910Z,38.92
2023-05-25T16:04:22.012Z,35.13
2023-05-25T16:07:08.907Z,36.83
2023-05-25T16:09:42.032Z,36.88
2023-05-25T16:12:28.901Z,37.97
2023-05-25T16:15:08.908Z,35.60
2023-05-25T16:18:02.862Z,38.42
2023-05-25T16:21:01.896Z,37.50
2023-05-25T16:23:55.885Z,33.40
2023-05-25T16:26:49.917Z,35.95
2023-05-25T16:29:36.900Z,42.67
2023-05-25T16:32:10.133Z,35.15
2023-05-25T16:34:56.908Z,41.17
2023-05-25T16:37:29.961Z,36.75
2023-05-25T16:40:19.910Z,38.90
2023-05-25T16:42:59.882Z,32.88
2023-05-25T16:45:53.955Z,36.28
2023-05-25T16:48:40.998Z,36.47
2023-05-25T16:51:15.910Z,39.42
2023-05-25T16:54:02.905Z,41.65
2023-05-25T16:56:42.952Z,40.95
2023-05-25T16:59:36.905Z,44.42
2023-05-25T17:02:24.045Z,40.30
2023-05-25T17:05:06.949Z,39.42
2023-05-25T17:07:54.055Z,43.45
2023-05-25T17:10:27.004Z,44.28
2023-05-25T17:13:14.954Z,40.58
2023-05-25T17:15:48.271Z,45.40
2023-05-25T17:18:34.964Z,43.30
2023-05-25T17:21:08.061Z,41.15
2023-05-25T17:23:56.911Z,43.53
2023-05-25T17:26:36.913Z,43.60
2023-05-25T17:29:30.894Z,42.95
2023-05-25T17:32:24.920Z,44.03
2023-05-25T17:35:20.907Z,45.25
2023-05-25T17:38:14.925Z,47.17
2023-05-25T17:41:08.911Z,45.28
2023-05-25T17:44:02.932Z,44.22
2023-05-25T17:46:56.903Z,54.05
2023-05-25T17:49:51.111Z,45.40
2023-05-25T17:52:44.913Z,41.60
2023-05-25T17:55:32.027Z,43.78
2023-05-25T17:58:05.042Z,47.08
2023-05-25T18:00:52.033Z,41.63
2023-05-25T18:03:26.080Z,51.08
2023-05-25T18:06:12.942Z,43.75
2023-05-25T18:08:52.933Z,44.38
2023-05-25T18:11:46.907Z,48.42
2023-05-25T18:14:33.938Z,45.00
2023-05-25T18:17:15.011Z,46.50
2023-05-25T18:20:08.949Z,42.78
2023-05-25T18:22:55.952Z,46.55
2023-05-25T18:25:29.042Z,49.63
2023-05-25T18:28:15.984Z,46.80
2023-05-25T18:30:49.136Z,44.75
2023-05-25T18:33:35.979Z,49.53
2023-05-25T18:36:09.062Z,47.55
2023-05-25T18:38:55.944Z,50.00
2023-05-25T18:41:29.057Z,47.38
2023-05-25T18:44:15.961Z,51.85
2023-05-25T18:46:57.980Z,48.80
2023-05-25T18:49:51.955Z,46.72
2023-05-25T18:52:45.953Z,48.03
2023-05-25T18:55:35.931Z,48.83
2023-05-25T18:58:09.129Z,52.83
2023-05-25T19:00:55.952Z,47.70
2023-05-25T19:03:29.119Z,54.60
2023-05-25T19:06:15.945Z,55.08
2023-05-25T19:08:49.690Z,53.00
2023-05-25T19:11:35.940Z,54.30
2023-05-25T19:14:16.008Z,50.85
2023-05-25T19:17:05.250Z,49.05
2023-05-25T19:19:39.051Z,50.30
2023-05-25T19:22:25.959Z,46.30
2023-05-25T19:25:05.971Z,49.58
2023-05-25T19:27:52.991Z,46.42
2023-05-25T19:30:33.016Z,48.45
2023-05-25T19:33:27.961Z,48.60
2023-05-25T19:36:22.130Z,49.45
2023-05-25T19:38:55.060Z,52.47
2023-05-25T19:41:43.959Z,48.65
2023-05-25T19:44:17.295Z,49.20
2023-05-25T19:47:03.969Z,46.95
2023-05-25T19:49:43.964Z,50.65
2023-05-25T19:52:33.020Z,54.78
2023-05-25T19:55:13.003Z,56.25
2023-05-25T19:57:59.957Z,50.45
2023-05-25T20:00:33.122Z,47.28
2023-05-25T20:03:22.098Z,51.15
2023-05-25T20:06:02.992Z,47.83
2023-05-25T20:08:57.007Z,51.88
2023-05-25T20:11:43.967Z,46.28
2023-05-25T20:14:18.569Z,48.75
2023-05-25T20:17:06.993Z,49.78
2023-05-25T20:19:40.180Z,49.45
2023-05-25T20:22:28.002Z,48.70
2023-05-25T20:25:07.986Z,47.90
2023-05-25T20:27:54.994Z,50.20
2023-05-25T20:30:28.091Z,47.25
2023-05-25T20:33:14.987Z,55.03
2023-05-25T20:35:48.297Z,51.30
2023-05-25T20:38:34.983Z,47.42
2023-05-25T20:41:14.997Z,49.50
2023-05-25T20:44:09.028Z,49.67
2023-05-25T20:47:10.983Z,47.58
2023-05-25T20:50:05.026Z,43.40
2023-05-25T20:52:59.011Z,43.95
2023-05-25T20:55:46.081Z,43.38
2023-05-25T20:58:20.195Z,47.40
2023-05-25T21:01:07.035Z,46.60
2023-05-25T21:03:48.125Z,44.40
2023-05-25T21:06:35.051Z,46.17
2023-05-25T21:09:09.103Z,46.65
2023-05-25T21:11:56.058Z,48.25
2023-05-25T21:14:29.874Z,45.53
2023-05-25T21:17:17.095Z,47.10
2023-05-25T21:19:50.294Z,46.30
2023-05-25T21:22:37.057Z,43.42
2023-05-25T21:25:11.699Z,46.15
2023-05-25T21:27:58.036Z,44.03
2023-05-25T21:30:31.134Z,44.33
2023-05-25T21:33:18.054Z,43.20
2023-05-25T21:35:58.034Z,42.40
2023-05-25T21:38:52.041Z,41.85
2023-05-25T21:41:39.016Z,43.55
2023-05-25T21:44:12.136Z,44.00
2023-05-25T21:47:06.077Z,41.65
2023-05-25T21:50:00.054Z,43.20
2023-05-25T21:52:48.053Z,39.72
2023-05-25T21:55:28.050Z,42.90
2023-05-25T21:58:15.039Z,40.78
2023-05-25T22:00:48.245Z,42.47
2023-05-25T22:03:35.223Z,37.97
2023-05-25T22:06:08.163Z,41.40
2023-05-25T22:08:55.090Z,38.95
2023-05-25T22:11:35.068Z,46.17
2023-05-25T22:14:22.030Z,34.90
2023-05-25T22:16:55.237Z,38.13
2023-05-25T22:19:44.836Z,40.67
2023-05-25T22:22:18.127Z,34.88
2023-05-25T22:25:05.175Z,35.28
2023-05-25T22:27:39.171Z,35.85
2023-05-25T22:30:26.072Z,38.63
2023-05-25T22:32:59.301Z,36.65
2023-05-25T22:35:46.305Z,37.90
2023-05-25T22:38:20.173Z,37.15
2023-05-25T22:41:07.090Z,33.40
2023-05-25T22:43:40.168Z,38.83
2023-05-25T22:46:34.097Z,42.30
2023-05-25T22:49:28.073Z,36.28
2023-05-25T22:52:18.094Z,38.65
2023-05-25T22:54:58.053Z,36.00
2023-05-25T22:57:52.056Z,39.70
2023-05-25T23:00:39.097Z,40.95
2023-05-25T23:03:12.345Z,35.22
2023-05-25T23:05:59.073Z,38.50
2023-05-25T23:08:32.252Z,42.08
2023-05-25T23:11:19.089Z,37.80
2023-05-25T23:13:54.735Z,41.30
2023-05-25T23:16:41.208Z,39.42
2023-05-25T23:19:14.180Z,44.78
2023-05-25T23:22:01.084Z,41.05
2023-05-25T23:24:41.090Z,39.45
2023-05-25T23:27:35.109Z,38.88
2023-05-25T23:30:29.080Z,37.55
2023-05-25T23:33:17.096Z,37.13
2023-05-25T23:35:58.116Z,49.97
2023-05-25T23:38:52.137Z,44.80
2023-05-25T23:41:46.086Z,40.55
2023-05-25T23:44:33.084Z,40.15
2023-05-25T23:47:06.261Z,43.72
2023-05-25T23:49:53.081Z,39.97
2023-05-25T23:52:26.178Z,40.65
2023-05-25T23:55:14.082Z,42.10
2023-05-25T23:57:47.229Z,44.10
